<?xml version="1.0" encoding="UTF-8" standalone="no" ?>
<gpx xmlns="http://www.topografix.com/GPX/1/1" xmlns:xsi="http://www.w3.org/2001/XMLSchema-instance" xsi:schemaLocation="http://www.topografix.com/GPX/1/1 http://www.topografix.com/GPX/1/1/gpx.xsd" version="1.1" creator="VisuGPX - https://www.visugpx.com">
  <metadata>
    <name>Enfer vert avec Quentin</name>
    <desc><![CDATA[1er enfer vert pour Quentin.
]]></desc>
  </metadata>
  <trk>
    <name><![CDATA[2016-04-03 11:01:39]]></name>
    <trkseg>
      <trkpt lat="50.13878" lon="3.76351">
        <ele>162.6</ele>
        <time>2016-04-03T07:35:15Z</time>
      </trkpt>
      <trkpt lat="50.13878" lon="3.76351">
        <ele>162.6</ele>
        <time>2016-04-03T07:35:16Z</time>
      </trkpt>
      <trkpt lat="50.13879" lon="3.76353">
        <ele>162.6</ele>
        <time>2016-04-03T07:35:30Z</time>
      </trkpt>
      <trkpt lat="50.13878" lon="3.76353">
        <ele>162.6</ele>
        <time>2016-04-03T07:35:45Z</time>
      </trkpt>
      <trkpt lat="50.13878" lon="3.76354">
        <ele>162.6</ele>
        <time>2016-04-03T07:36:14Z</time>
      </trkpt>
      <trkpt lat="50.13878" lon="3.76356">
        <ele>162.6</ele>
        <time>2016-04-03T07:36:25Z</time>
      </trkpt>
      <trkpt lat="50.13878" lon="3.76359">
        <ele>162.6</ele>
        <time>2016-04-03T07:36:39Z</time>
      </trkpt>
      <trkpt lat="50.13878" lon="3.76362">
        <ele>162.6</ele>
        <time>2016-04-03T07:36:58Z</time>
      </trkpt>
      <trkpt lat="50.13879" lon="3.76362">
        <ele>162.6</ele>
        <time>2016-04-03T07:37:19Z</time>
      </trkpt>
      <trkpt lat="50.1388" lon="3.76362">
        <ele>162.6</ele>
        <time>2016-04-03T07:37:46Z</time>
      </trkpt>
      <trkpt lat="50.13877" lon="3.76365">
        <ele>162.6</ele>
        <time>2016-04-03T07:38:03Z</time>
      </trkpt>
      <trkpt lat="50.13878" lon="3.76365">
        <ele>162.6</ele>
        <time>2016-04-03T07:38:14Z</time>
      </trkpt>
      <trkpt lat="50.13878" lon="3.76365">
        <ele>162.6</ele>
        <time>2016-04-03T07:38:36Z</time>
      </trkpt>
      <trkpt lat="50.13878" lon="3.76366">
        <ele>162.6</ele>
        <time>2016-04-03T07:38:43Z</time>
      </trkpt>
      <trkpt lat="50.13872" lon="3.76369">
        <ele>162.6</ele>
        <time>2016-04-03T07:38:47Z</time>
      </trkpt>
      <trkpt lat="50.1387" lon="3.7637">
        <ele>162.6</ele>
        <time>2016-04-03T07:38:48Z</time>
      </trkpt>
      <trkpt lat="50.13836" lon="3.76375">
        <ele>162.6</ele>
        <time>2016-04-03T07:39:01Z</time>
      </trkpt>
      <trkpt lat="50.13791" lon="3.76357">
        <ele>160.2</ele>
        <time>2016-04-03T07:39:15Z</time>
      </trkpt>
      <trkpt lat="50.13754" lon="3.76318">
        <ele>159.24</ele>
        <time>2016-04-03T07:39:28Z</time>
      </trkpt>
      <trkpt lat="50.13705" lon="3.76282">
        <ele>158.27</ele>
        <time>2016-04-03T07:39:44Z</time>
      </trkpt>
      <trkpt lat="50.13656" lon="3.76274">
        <ele>158.27</ele>
        <time>2016-04-03T07:39:59Z</time>
      </trkpt>
      <trkpt lat="50.13612" lon="3.76238">
        <ele>157.31</ele>
        <time>2016-04-03T07:40:15Z</time>
      </trkpt>
      <trkpt lat="50.1357" lon="3.76178">
        <ele>156.35</ele>
        <time>2016-04-03T07:40:32Z</time>
      </trkpt>
      <trkpt lat="50.13545" lon="3.76153">
        <ele>155.87</ele>
        <time>2016-04-03T07:40:44Z</time>
      </trkpt>
      <trkpt lat="50.13539" lon="3.76158">
        <ele>155.87</ele>
        <time>2016-04-03T07:40:47Z</time>
      </trkpt>
      <trkpt lat="50.13538" lon="3.7616">
        <ele>155.87</ele>
        <time>2016-04-03T07:40:48Z</time>
      </trkpt>
      <trkpt lat="50.13537" lon="3.76164">
        <ele>155.39</ele>
        <time>2016-04-03T07:40:49Z</time>
      </trkpt>
      <trkpt lat="50.13537" lon="3.76168">
        <ele>154.91</ele>
        <time>2016-04-03T07:40:50Z</time>
      </trkpt>
      <trkpt lat="50.13537" lon="3.76172">
        <ele>154.91</ele>
        <time>2016-04-03T07:40:51Z</time>
      </trkpt>
      <trkpt lat="50.13537" lon="3.76176">
        <ele>154.91</ele>
        <time>2016-04-03T07:40:52Z</time>
      </trkpt>
      <trkpt lat="50.13537" lon="3.76179">
        <ele>154.91</ele>
        <time>2016-04-03T07:40:53Z</time>
      </trkpt>
      <trkpt lat="50.1353" lon="3.76233">
        <ele>156.35</ele>
        <time>2016-04-03T07:41:07Z</time>
      </trkpt>
      <trkpt lat="50.1352" lon="3.76294">
        <ele>156.83</ele>
        <time>2016-04-03T07:41:23Z</time>
      </trkpt>
      <trkpt lat="50.13511" lon="3.76346">
        <ele>157.79</ele>
        <time>2016-04-03T07:41:39Z</time>
      </trkpt>
      <trkpt lat="50.1351" lon="3.76361">
        <ele>158.27</ele>
        <time>2016-04-03T07:41:45Z</time>
      </trkpt>
      <trkpt lat="50.1351" lon="3.76362">
        <ele>158.27</ele>
        <time>2016-04-03T07:41:46Z</time>
      </trkpt>
      <trkpt lat="50.13511" lon="3.76363">
        <ele>158.27</ele>
        <time>2016-04-03T07:41:47Z</time>
      </trkpt>
      <trkpt lat="50.13512" lon="3.76364">
        <ele>158.27</ele>
        <time>2016-04-03T07:41:49Z</time>
      </trkpt>
      <trkpt lat="50.13541" lon="3.76365">
        <ele>158.75</ele>
        <time>2016-04-03T07:42:03Z</time>
      </trkpt>
      <trkpt lat="50.1357" lon="3.76361">
        <ele>159.24</ele>
        <time>2016-04-03T07:42:15Z</time>
      </trkpt>
      <trkpt lat="50.13598" lon="3.76358">
        <ele>159.72</ele>
        <time>2016-04-03T07:42:27Z</time>
      </trkpt>
      <trkpt lat="50.13627" lon="3.76357">
        <ele>160.2</ele>
        <time>2016-04-03T07:42:39Z</time>
      </trkpt>
      <trkpt lat="50.13666" lon="3.76341">
        <ele>160.68</ele>
        <time>2016-04-03T07:42:55Z</time>
      </trkpt>
      <trkpt lat="50.13689" lon="3.76326">
        <ele>160.68</ele>
        <time>2016-04-03T07:43:04Z</time>
      </trkpt>
      <trkpt lat="50.13691" lon="3.76324">
        <ele>160.68</ele>
        <time>2016-04-03T07:43:05Z</time>
      </trkpt>
      <trkpt lat="50.13692" lon="3.7632">
        <ele>160.68</ele>
        <time>2016-04-03T07:43:06Z</time>
      </trkpt>
      <trkpt lat="50.13691" lon="3.76315">
        <ele>160.68</ele>
        <time>2016-04-03T07:43:07Z</time>
      </trkpt>
      <trkpt lat="50.1369" lon="3.76311">
        <ele>160.68</ele>
        <time>2016-04-03T07:43:08Z</time>
      </trkpt>
      <trkpt lat="50.13689" lon="3.76306">
        <ele>160.68</ele>
        <time>2016-04-03T07:43:09Z</time>
      </trkpt>
      <trkpt lat="50.13688" lon="3.76301">
        <ele>160.68</ele>
        <time>2016-04-03T07:43:10Z</time>
      </trkpt>
      <trkpt lat="50.13687" lon="3.7629">
        <ele>159.24</ele>
        <time>2016-04-03T07:43:12Z</time>
      </trkpt>
      <trkpt lat="50.13689" lon="3.76286">
        <ele>159.24</ele>
        <time>2016-04-03T07:43:13Z</time>
      </trkpt>
      <trkpt lat="50.13691" lon="3.76285">
        <ele>159.24</ele>
        <time>2016-04-03T07:43:14Z</time>
      </trkpt>
      <trkpt lat="50.13694" lon="3.76284">
        <ele>159.24</ele>
        <time>2016-04-03T07:43:15Z</time>
      </trkpt>
      <trkpt lat="50.13697" lon="3.76285">
        <ele>158.75</ele>
        <time>2016-04-03T07:43:16Z</time>
      </trkpt>
      <trkpt lat="50.13727" lon="3.76293">
        <ele>158.27</ele>
        <time>2016-04-03T07:43:30Z</time>
      </trkpt>
      <trkpt lat="50.13746" lon="3.76309">
        <ele>158.27</ele>
        <time>2016-04-03T07:43:45Z</time>
      </trkpt>
      <trkpt lat="50.13776" lon="3.76346">
        <ele>159.72</ele>
        <time>2016-04-03T07:44:03Z</time>
      </trkpt>
      <trkpt lat="50.13807" lon="3.7637">
        <ele>160.68</ele>
        <time>2016-04-03T07:44:18Z</time>
      </trkpt>
      <trkpt lat="50.13847" lon="3.76379">
        <ele>161.64</ele>
        <time>2016-04-03T07:44:33Z</time>
      </trkpt>
      <trkpt lat="50.13879" lon="3.76368">
        <ele>162.6</ele>
        <time>2016-04-03T07:44:48Z</time>
      </trkpt>
      <trkpt lat="50.13908" lon="3.76341">
        <ele>162.12</ele>
        <time>2016-04-03T07:45:04Z</time>
      </trkpt>
      <trkpt lat="50.13945" lon="3.7629">
        <ele>162.12</ele>
        <time>2016-04-03T07:45:18Z</time>
      </trkpt>
      <trkpt lat="50.13953" lon="3.7628">
        <ele>162.12</ele>
        <time>2016-04-03T07:45:22Z</time>
      </trkpt>
      <trkpt lat="50.13955" lon="3.7628">
        <ele>162.12</ele>
        <time>2016-04-03T07:45:23Z</time>
      </trkpt>
      <trkpt lat="50.13958" lon="3.76281">
        <ele>162.12</ele>
        <time>2016-04-03T07:45:24Z</time>
      </trkpt>
      <trkpt lat="50.13961" lon="3.76287">
        <ele>162.12</ele>
        <time>2016-04-03T07:45:26Z</time>
      </trkpt>
      <trkpt lat="50.13962" lon="3.7629">
        <ele>162.12</ele>
        <time>2016-04-03T07:45:27Z</time>
      </trkpt>
      <trkpt lat="50.13994" lon="3.7633">
        <ele>162.12</ele>
        <time>2016-04-03T07:45:43Z</time>
      </trkpt>
      <trkpt lat="50.14045" lon="3.76331">
        <ele>161.16</ele>
        <time>2016-04-03T07:45:56Z</time>
      </trkpt>
      <trkpt lat="50.14096" lon="3.76325">
        <ele>160.2</ele>
        <time>2016-04-03T07:46:07Z</time>
      </trkpt>
      <trkpt lat="50.14112" lon="3.76326">
        <ele>159.72</ele>
        <time>2016-04-03T07:46:10Z</time>
      </trkpt>
      <trkpt lat="50.14117" lon="3.76328">
        <ele>159.72</ele>
        <time>2016-04-03T07:46:11Z</time>
      </trkpt>
      <trkpt lat="50.14127" lon="3.76332">
        <ele>159.24</ele>
        <time>2016-04-03T07:46:13Z</time>
      </trkpt>
      <trkpt lat="50.14194" lon="3.76394">
        <ele>157.31</ele>
        <time>2016-04-03T07:46:29Z</time>
      </trkpt>
      <trkpt lat="50.14199" lon="3.76398">
        <ele>157.31</ele>
        <time>2016-04-03T07:46:30Z</time>
      </trkpt>
      <trkpt lat="50.14236" lon="3.7643">
        <ele>156.83</ele>
        <time>2016-04-03T07:46:39Z</time>
      </trkpt>
      <trkpt lat="50.1424" lon="3.76433">
        <ele>156.83</ele>
        <time>2016-04-03T07:46:40Z</time>
      </trkpt>
      <trkpt lat="50.14319" lon="3.76488">
        <ele>153.95</ele>
        <time>2016-04-03T07:46:58Z</time>
      </trkpt>
      <trkpt lat="50.14401" lon="3.76524">
        <ele>150.58</ele>
        <time>2016-04-03T07:47:12Z</time>
      </trkpt>
      <trkpt lat="50.14472" lon="3.76576">
        <ele>147.22</ele>
        <time>2016-04-03T07:47:26Z</time>
      </trkpt>
      <trkpt lat="50.14566" lon="3.76641">
        <ele>145.78</ele>
        <time>2016-04-03T07:47:44Z</time>
      </trkpt>
      <trkpt lat="50.1457" lon="3.76646">
        <ele>145.78</ele>
        <time>2016-04-03T07:47:45Z</time>
      </trkpt>
      <trkpt lat="50.1459" lon="3.76677">
        <ele>146.26</ele>
        <time>2016-04-03T07:47:51Z</time>
      </trkpt>
      <trkpt lat="50.14596" lon="3.76687">
        <ele>145.78</ele>
        <time>2016-04-03T07:47:53Z</time>
      </trkpt>
      <trkpt lat="50.14634" lon="3.76773">
        <ele>145.78</ele>
        <time>2016-04-03T07:48:10Z</time>
      </trkpt>
      <trkpt lat="50.14664" lon="3.7683">
        <ele>143.85</ele>
        <time>2016-04-03T07:48:23Z</time>
      </trkpt>
      <trkpt lat="50.14668" lon="3.76835">
        <ele>143.85</ele>
        <time>2016-04-03T07:48:24Z</time>
      </trkpt>
      <trkpt lat="50.14729" lon="3.76888">
        <ele>142.41</ele>
        <time>2016-04-03T07:48:40Z</time>
      </trkpt>
      <trkpt lat="50.14782" lon="3.76928">
        <ele>142.41</ele>
        <time>2016-04-03T07:48:57Z</time>
      </trkpt>
      <trkpt lat="50.14805" lon="3.76947">
        <ele>143.85</ele>
        <time>2016-04-03T07:49:04Z</time>
      </trkpt>
      <trkpt lat="50.14809" lon="3.7695">
        <ele>142.41</ele>
        <time>2016-04-03T07:49:05Z</time>
      </trkpt>
      <trkpt lat="50.14812" lon="3.76954">
        <ele>142.41</ele>
        <time>2016-04-03T07:49:06Z</time>
      </trkpt>
      <trkpt lat="50.14879" lon="3.77033">
        <ele>139.53</ele>
        <time>2016-04-03T07:49:25Z</time>
      </trkpt>
      <trkpt lat="50.14914" lon="3.77036">
        <ele>137.13</ele>
        <time>2016-04-03T07:49:35Z</time>
      </trkpt>
      <trkpt lat="50.14916" lon="3.77033">
        <ele>137.13</ele>
        <time>2016-04-03T07:49:36Z</time>
      </trkpt>
      <trkpt lat="50.14917" lon="3.77029">
        <ele>137.13</ele>
        <time>2016-04-03T07:49:37Z</time>
      </trkpt>
      <trkpt lat="50.14917" lon="3.77026">
        <ele>136.64</ele>
        <time>2016-04-03T07:49:38Z</time>
      </trkpt>
      <trkpt lat="50.14917" lon="3.77022">
        <ele>136.64</ele>
        <time>2016-04-03T07:49:39Z</time>
      </trkpt>
      <trkpt lat="50.14916" lon="3.77019">
        <ele>136.64</ele>
        <time>2016-04-03T07:49:40Z</time>
      </trkpt>
      <trkpt lat="50.14906" lon="3.76958">
        <ele>138.09</ele>
        <time>2016-04-03T07:49:56Z</time>
      </trkpt>
      <trkpt lat="50.14892" lon="3.76896">
        <ele>138.57</ele>
        <time>2016-04-03T07:50:09Z</time>
      </trkpt>
      <trkpt lat="50.14883" lon="3.76852">
        <ele>138.57</ele>
        <time>2016-04-03T07:50:20Z</time>
      </trkpt>
      <trkpt lat="50.14863" lon="3.76801">
        <ele>138.57</ele>
        <time>2016-04-03T07:50:34Z</time>
      </trkpt>
      <trkpt lat="50.14845" lon="3.76753">
        <ele>138.57</ele>
        <time>2016-04-03T07:50:48Z</time>
      </trkpt>
      <trkpt lat="50.14829" lon="3.76692">
        <ele>139.05</ele>
        <time>2016-04-03T07:51:02Z</time>
      </trkpt>
      <trkpt lat="50.14814" lon="3.76629">
        <ele>139.05</ele>
        <time>2016-04-03T07:51:17Z</time>
      </trkpt>
      <trkpt lat="50.14812" lon="3.76617">
        <ele>139.05</ele>
        <time>2016-04-03T07:51:20Z</time>
      </trkpt>
      <trkpt lat="50.1481" lon="3.76615">
        <ele>139.05</ele>
        <time>2016-04-03T07:51:21Z</time>
      </trkpt>
      <trkpt lat="50.14809" lon="3.76611">
        <ele>139.05</ele>
        <time>2016-04-03T07:51:22Z</time>
      </trkpt>
      <trkpt lat="50.148" lon="3.76562">
        <ele>139.05</ele>
        <time>2016-04-03T07:51:35Z</time>
      </trkpt>
      <trkpt lat="50.1479" lon="3.76512">
        <ele>137.61</ele>
        <time>2016-04-03T07:51:50Z</time>
      </trkpt>
      <trkpt lat="50.14789" lon="3.76509">
        <ele>137.61</ele>
        <time>2016-04-03T07:51:51Z</time>
      </trkpt>
      <trkpt lat="50.14781" lon="3.76475">
        <ele>137.61</ele>
        <time>2016-04-03T07:52:04Z</time>
      </trkpt>
      <trkpt lat="50.14769" lon="3.76427">
        <ele>137.61</ele>
        <time>2016-04-03T07:52:15Z</time>
      </trkpt>
      <trkpt lat="50.14751" lon="3.76366">
        <ele>137.61</ele>
        <time>2016-04-03T07:52:29Z</time>
      </trkpt>
      <trkpt lat="50.14729" lon="3.76291">
        <ele>137.13</ele>
        <time>2016-04-03T07:52:46Z</time>
      </trkpt>
      <trkpt lat="50.14699" lon="3.76241">
        <ele>137.13</ele>
        <time>2016-04-03T07:53:02Z</time>
      </trkpt>
      <trkpt lat="50.14662" lon="3.76199">
        <ele>138.09</ele>
        <time>2016-04-03T07:53:18Z</time>
      </trkpt>
      <trkpt lat="50.14634" lon="3.76164">
        <ele>139.05</ele>
        <time>2016-04-03T07:53:31Z</time>
      </trkpt>
      <trkpt lat="50.14616" lon="3.76124">
        <ele>140.49</ele>
        <time>2016-04-03T07:53:44Z</time>
      </trkpt>
      <trkpt lat="50.14602" lon="3.76082">
        <ele>141.45</ele>
        <time>2016-04-03T07:53:57Z</time>
      </trkpt>
      <trkpt lat="50.14583" lon="3.76025">
        <ele>142.89</ele>
        <time>2016-04-03T07:54:14Z</time>
      </trkpt>
      <trkpt lat="50.14574" lon="3.75977">
        <ele>142.89</ele>
        <time>2016-04-03T07:54:27Z</time>
      </trkpt>
      <trkpt lat="50.14569" lon="3.75902">
        <ele>142.89</ele>
        <time>2016-04-03T07:54:43Z</time>
      </trkpt>
      <trkpt lat="50.14559" lon="3.75812">
        <ele>142.89</ele>
        <time>2016-04-03T07:55:01Z</time>
      </trkpt>
      <trkpt lat="50.14554" lon="3.75747">
        <ele>142.89</ele>
        <time>2016-04-03T07:55:15Z</time>
      </trkpt>
      <trkpt lat="50.14549" lon="3.75642">
        <ele>142.89</ele>
        <time>2016-04-03T07:55:35Z</time>
      </trkpt>
      <trkpt lat="50.14551" lon="3.75638">
        <ele>142.89</ele>
        <time>2016-04-03T07:55:36Z</time>
      </trkpt>
      <trkpt lat="50.14554" lon="3.75635">
        <ele>142.89</ele>
        <time>2016-04-03T07:55:37Z</time>
      </trkpt>
      <trkpt lat="50.14593" lon="3.75591">
        <ele>141.45</ele>
        <time>2016-04-03T07:55:50Z</time>
      </trkpt>
      <trkpt lat="50.14592" lon="3.75586">
        <ele>141.45</ele>
        <time>2016-04-03T07:55:51Z</time>
      </trkpt>
      <trkpt lat="50.14582" lon="3.75501">
        <ele>141.45</ele>
        <time>2016-04-03T07:56:06Z</time>
      </trkpt>
      <trkpt lat="50.14555" lon="3.75413">
        <ele>140.49</ele>
        <time>2016-04-03T07:56:23Z</time>
      </trkpt>
      <trkpt lat="50.1452" lon="3.75341">
        <ele>140.49</ele>
        <time>2016-04-03T07:56:40Z</time>
      </trkpt>
      <trkpt lat="50.14492" lon="3.75279">
        <ele>140.49</ele>
        <time>2016-04-03T07:56:55Z</time>
      </trkpt>
      <trkpt lat="50.14479" lon="3.7521">
        <ele>140.01</ele>
        <time>2016-04-03T07:57:09Z</time>
      </trkpt>
      <trkpt lat="50.14461" lon="3.75125">
        <ele>138.57</ele>
        <time>2016-04-03T07:57:27Z</time>
      </trkpt>
      <trkpt lat="50.14449" lon="3.75056">
        <ele>137.13</ele>
        <time>2016-04-03T07:57:41Z</time>
      </trkpt>
      <trkpt lat="50.14436" lon="3.74975">
        <ele>136.64</ele>
        <time>2016-04-03T07:57:59Z</time>
      </trkpt>
      <trkpt lat="50.14421" lon="3.74906">
        <ele>136.16</ele>
        <time>2016-04-03T07:58:14Z</time>
      </trkpt>
      <trkpt lat="50.14406" lon="3.74807">
        <ele>134.72</ele>
        <time>2016-04-03T07:58:33Z</time>
      </trkpt>
      <trkpt lat="50.14401" lon="3.74726">
        <ele>134.72</ele>
        <time>2016-04-03T07:58:50Z</time>
      </trkpt>
      <trkpt lat="50.14401" lon="3.74707">
        <ele>134.72</ele>
        <time>2016-04-03T07:58:55Z</time>
      </trkpt>
      <trkpt lat="50.14401" lon="3.74705">
        <ele>134.72</ele>
        <time>2016-04-03T07:58:56Z</time>
      </trkpt>
      <trkpt lat="50.14401" lon="3.74703">
        <ele>134.72</ele>
        <time>2016-04-03T07:58:57Z</time>
      </trkpt>
      <trkpt lat="50.14401" lon="3.74701">
        <ele>134.72</ele>
        <time>2016-04-03T07:58:58Z</time>
      </trkpt>
      <trkpt lat="50.14401" lon="3.74699">
        <ele>134.72</ele>
        <time>2016-04-03T07:58:59Z</time>
      </trkpt>
      <trkpt lat="50.14402" lon="3.74697">
        <ele>134.72</ele>
        <time>2016-04-03T07:59:00Z</time>
      </trkpt>
      <trkpt lat="50.14402" lon="3.74696">
        <ele>134.72</ele>
        <time>2016-04-03T07:59:12Z</time>
      </trkpt>
      <trkpt lat="50.14401" lon="3.74693">
        <ele>134.72</ele>
        <time>2016-04-03T07:59:16Z</time>
      </trkpt>
      <trkpt lat="50.144" lon="3.74646">
        <ele>134.24</ele>
        <time>2016-04-03T07:59:30Z</time>
      </trkpt>
      <trkpt lat="50.14391" lon="3.74582">
        <ele>133.76</ele>
        <time>2016-04-03T07:59:44Z</time>
      </trkpt>
      <trkpt lat="50.14365" lon="3.74503">
        <ele>133.28</ele>
        <time>2016-04-03T08:00:00Z</time>
      </trkpt>
      <trkpt lat="50.14365" lon="3.74448">
        <ele>133.28</ele>
        <time>2016-04-03T08:00:11Z</time>
      </trkpt>
      <trkpt lat="50.14366" lon="3.74385">
        <ele>133.28</ele>
        <time>2016-04-03T08:00:24Z</time>
      </trkpt>
      <trkpt lat="50.14347" lon="3.74305">
        <ele>132.8</ele>
        <time>2016-04-03T08:00:39Z</time>
      </trkpt>
      <trkpt lat="50.14326" lon="3.74241">
        <ele>132.8</ele>
        <time>2016-04-03T08:00:54Z</time>
      </trkpt>
      <trkpt lat="50.14316" lon="3.74198">
        <ele>132.32</ele>
        <time>2016-04-03T08:01:08Z</time>
      </trkpt>
      <trkpt lat="50.14304" lon="3.74155">
        <ele>132.32</ele>
        <time>2016-04-03T08:01:19Z</time>
      </trkpt>
      <trkpt lat="50.1427" lon="3.74136">
        <ele>132.32</ele>
        <time>2016-04-03T08:01:30Z</time>
      </trkpt>
      <trkpt lat="50.14237" lon="3.74129">
        <ele>132.32</ele>
        <time>2016-04-03T08:01:41Z</time>
      </trkpt>
      <trkpt lat="50.14222" lon="3.74119">
        <ele>132.32</ele>
        <time>2016-04-03T08:01:46Z</time>
      </trkpt>
      <trkpt lat="50.1422" lon="3.74114">
        <ele>132.32</ele>
        <time>2016-04-03T08:01:47Z</time>
      </trkpt>
      <trkpt lat="50.14221" lon="3.74108">
        <ele>132.32</ele>
        <time>2016-04-03T08:01:48Z</time>
      </trkpt>
      <trkpt lat="50.14222" lon="3.74105">
        <ele>132.32</ele>
        <time>2016-04-03T08:01:49Z</time>
      </trkpt>
      <trkpt lat="50.14224" lon="3.741">
        <ele>132.32</ele>
        <time>2016-04-03T08:01:50Z</time>
      </trkpt>
      <trkpt lat="50.14241" lon="3.74055">
        <ele>132.32</ele>
        <time>2016-04-03T08:02:01Z</time>
      </trkpt>
      <trkpt lat="50.1426" lon="3.73971">
        <ele>132.32</ele>
        <time>2016-04-03T08:02:19Z</time>
      </trkpt>
      <trkpt lat="50.14271" lon="3.73928">
        <ele>132.32</ele>
        <time>2016-04-03T08:02:30Z</time>
      </trkpt>
      <trkpt lat="50.14279" lon="3.73882">
        <ele>132.32</ele>
        <time>2016-04-03T08:02:42Z</time>
      </trkpt>
      <trkpt lat="50.14278" lon="3.73822">
        <ele>132.32</ele>
        <time>2016-04-03T08:02:57Z</time>
      </trkpt>
      <trkpt lat="50.14278" lon="3.73809">
        <ele>133.28</ele>
        <time>2016-04-03T08:03:00Z</time>
      </trkpt>
      <trkpt lat="50.14279" lon="3.73769">
        <ele>134.24</ele>
        <time>2016-04-03T08:03:11Z</time>
      </trkpt>
      <trkpt lat="50.1428" lon="3.73768">
        <ele>133.28</ele>
        <time>2016-04-03T08:03:20Z</time>
      </trkpt>
      <trkpt lat="50.1428" lon="3.73764">
        <ele>133.28</ele>
        <time>2016-04-03T08:03:38Z</time>
      </trkpt>
      <trkpt lat="50.14278" lon="3.73764">
        <ele>132.32</ele>
        <time>2016-04-03T08:04:08Z</time>
      </trkpt>
      <trkpt lat="50.14276" lon="3.73765">
        <ele>132.32</ele>
        <time>2016-04-03T08:04:38Z</time>
      </trkpt>
      <trkpt lat="50.14276" lon="3.73764">
        <ele>132.32</ele>
        <time>2016-04-03T08:05:07Z</time>
      </trkpt>
      <trkpt lat="50.14278" lon="3.73764">
        <ele>132.32</ele>
        <time>2016-04-03T08:05:35Z</time>
      </trkpt>
      <trkpt lat="50.14276" lon="3.73766">
        <ele>132.32</ele>
        <time>2016-04-03T08:06:03Z</time>
      </trkpt>
      <trkpt lat="50.14277" lon="3.73765">
        <ele>132.32</ele>
        <time>2016-04-03T08:06:33Z</time>
      </trkpt>
      <trkpt lat="50.14277" lon="3.73768">
        <ele>131.84</ele>
        <time>2016-04-03T08:07:12Z</time>
      </trkpt>
      <trkpt lat="50.14276" lon="3.73766">
        <ele>131.84</ele>
        <time>2016-04-03T08:07:52Z</time>
      </trkpt>
      <trkpt lat="50.14276" lon="3.73768">
        <ele>132.8</ele>
        <time>2016-04-03T08:08:31Z</time>
      </trkpt>
      <trkpt lat="50.14275" lon="3.73767">
        <ele>132.8</ele>
        <time>2016-04-03T08:09:19Z</time>
      </trkpt>
      <trkpt lat="50.14276" lon="3.73766">
        <ele>132.8</ele>
        <time>2016-04-03T08:09:52Z</time>
      </trkpt>
      <trkpt lat="50.14277" lon="3.73767">
        <ele>133.28</ele>
        <time>2016-04-03T08:10:25Z</time>
      </trkpt>
      <trkpt lat="50.14277" lon="3.73764">
        <ele>132.8</ele>
        <time>2016-04-03T08:11:05Z</time>
      </trkpt>
      <trkpt lat="50.14277" lon="3.73766">
        <ele>132.8</ele>
        <time>2016-04-03T08:11:40Z</time>
      </trkpt>
      <trkpt lat="50.14274" lon="3.73764">
        <ele>132.8</ele>
        <time>2016-04-03T08:12:17Z</time>
      </trkpt>
      <trkpt lat="50.14274" lon="3.73769">
        <ele>132.8</ele>
        <time>2016-04-03T08:12:50Z</time>
      </trkpt>
      <trkpt lat="50.14275" lon="3.73768">
        <ele>132.8</ele>
        <time>2016-04-03T08:13:21Z</time>
      </trkpt>
      <trkpt lat="50.14274" lon="3.73768">
        <ele>132.8</ele>
        <time>2016-04-03T08:13:59Z</time>
      </trkpt>
      <trkpt lat="50.14274" lon="3.73766">
        <ele>132.8</ele>
        <time>2016-04-03T08:14:41Z</time>
      </trkpt>
      <trkpt lat="50.14277" lon="3.73762">
        <ele>132.8</ele>
        <time>2016-04-03T08:14:46Z</time>
      </trkpt>
      <trkpt lat="50.14276" lon="3.7376">
        <ele>132.8</ele>
        <time>2016-04-03T08:14:47Z</time>
      </trkpt>
      <trkpt lat="50.14276" lon="3.73757">
        <ele>132.8</ele>
        <time>2016-04-03T08:14:48Z</time>
      </trkpt>
      <trkpt lat="50.14276" lon="3.73753">
        <ele>132.8</ele>
        <time>2016-04-03T08:14:49Z</time>
      </trkpt>
      <trkpt lat="50.14276" lon="3.73749">
        <ele>132.8</ele>
        <time>2016-04-03T08:14:50Z</time>
      </trkpt>
      <trkpt lat="50.14275" lon="3.73744">
        <ele>132.8</ele>
        <time>2016-04-03T08:14:51Z</time>
      </trkpt>
      <trkpt lat="50.14264" lon="3.73649">
        <ele>132.8</ele>
        <time>2016-04-03T08:15:06Z</time>
      </trkpt>
      <trkpt lat="50.14253" lon="3.73567">
        <ele>132.8</ele>
        <time>2016-04-03T08:15:20Z</time>
      </trkpt>
      <trkpt lat="50.14229" lon="3.73498">
        <ele>132.8</ele>
        <time>2016-04-03T08:15:37Z</time>
      </trkpt>
      <trkpt lat="50.14185" lon="3.73457">
        <ele>131.84</ele>
        <time>2016-04-03T08:15:53Z</time>
      </trkpt>
      <trkpt lat="50.14131" lon="3.73429">
        <ele>131.36</ele>
        <time>2016-04-03T08:16:11Z</time>
      </trkpt>
      <trkpt lat="50.14073" lon="3.73394">
        <ele>130.88</ele>
        <time>2016-04-03T08:16:31Z</time>
      </trkpt>
      <trkpt lat="50.14037" lon="3.73341">
        <ele>130.88</ele>
        <time>2016-04-03T08:16:47Z</time>
      </trkpt>
      <trkpt lat="50.14017" lon="3.73306">
        <ele>130.88</ele>
        <time>2016-04-03T08:16:59Z</time>
      </trkpt>
      <trkpt lat="50.13984" lon="3.7325">
        <ele>130.88</ele>
        <time>2016-04-03T08:17:17Z</time>
      </trkpt>
      <trkpt lat="50.13953" lon="3.73196">
        <ele>130.88</ele>
        <time>2016-04-03T08:17:33Z</time>
      </trkpt>
      <trkpt lat="50.13921" lon="3.73145">
        <ele>130.4</ele>
        <time>2016-04-03T08:17:48Z</time>
      </trkpt>
      <trkpt lat="50.13884" lon="3.73099">
        <ele>130.4</ele>
        <time>2016-04-03T08:18:02Z</time>
      </trkpt>
      <trkpt lat="50.1384" lon="3.73052">
        <ele>130.88</ele>
        <time>2016-04-03T08:18:17Z</time>
      </trkpt>
      <trkpt lat="50.13811" lon="3.73012">
        <ele>130.88</ele>
        <time>2016-04-03T08:18:31Z</time>
      </trkpt>
      <trkpt lat="50.13779" lon="3.72966">
        <ele>130.88</ele>
        <time>2016-04-03T08:18:47Z</time>
      </trkpt>
      <trkpt lat="50.13719" lon="3.72905">
        <ele>130.4</ele>
        <time>2016-04-03T08:19:08Z</time>
      </trkpt>
      <trkpt lat="50.13664" lon="3.7285">
        <ele>130.4</ele>
        <time>2016-04-03T08:19:27Z</time>
      </trkpt>
      <trkpt lat="50.13613" lon="3.72801">
        <ele>130.4</ele>
        <time>2016-04-03T08:19:46Z</time>
      </trkpt>
      <trkpt lat="50.13571" lon="3.72765">
        <ele>130.4</ele>
        <time>2016-04-03T08:20:01Z</time>
      </trkpt>
      <trkpt lat="50.13522" lon="3.72742">
        <ele>131.84</ele>
        <time>2016-04-03T08:20:18Z</time>
      </trkpt>
      <trkpt lat="50.13467" lon="3.72724">
        <ele>132.32</ele>
        <time>2016-04-03T08:20:36Z</time>
      </trkpt>
      <trkpt lat="50.13416" lon="3.72709">
        <ele>133.28</ele>
        <time>2016-04-03T08:20:54Z</time>
      </trkpt>
      <trkpt lat="50.13371" lon="3.72699">
        <ele>133.76</ele>
        <time>2016-04-03T08:21:11Z</time>
      </trkpt>
      <trkpt lat="50.13333" lon="3.7269">
        <ele>133.76</ele>
        <time>2016-04-03T08:21:27Z</time>
      </trkpt>
      <trkpt lat="50.13293" lon="3.72674">
        <ele>133.76</ele>
        <time>2016-04-03T08:21:43Z</time>
      </trkpt>
      <trkpt lat="50.13254" lon="3.72651">
        <ele>133.76</ele>
        <time>2016-04-03T08:21:57Z</time>
      </trkpt>
      <trkpt lat="50.13207" lon="3.72625">
        <ele>132.8</ele>
        <time>2016-04-03T08:22:13Z</time>
      </trkpt>
      <trkpt lat="50.13158" lon="3.726">
        <ele>132.8</ele>
        <time>2016-04-03T08:22:30Z</time>
      </trkpt>
      <trkpt lat="50.13104" lon="3.7258">
        <ele>132.8</ele>
        <time>2016-04-03T08:22:48Z</time>
      </trkpt>
      <trkpt lat="50.13068" lon="3.72537">
        <ele>132.8</ele>
        <time>2016-04-03T08:23:04Z</time>
      </trkpt>
      <trkpt lat="50.1304" lon="3.72486">
        <ele>133.76</ele>
        <time>2016-04-03T08:23:20Z</time>
      </trkpt>
      <trkpt lat="50.13028" lon="3.72465">
        <ele>134.24</ele>
        <time>2016-04-03T08:23:30Z</time>
      </trkpt>
      <trkpt lat="50.13028" lon="3.72464">
        <ele>134.24</ele>
        <time>2016-04-03T08:23:31Z</time>
      </trkpt>
      <trkpt lat="50.13026" lon="3.72463">
        <ele>134.24</ele>
        <time>2016-04-03T08:23:32Z</time>
      </trkpt>
      <trkpt lat="50.13024" lon="3.72463">
        <ele>134.24</ele>
        <time>2016-04-03T08:23:33Z</time>
      </trkpt>
      <trkpt lat="50.13021" lon="3.72466">
        <ele>134.24</ele>
        <time>2016-04-03T08:23:35Z</time>
      </trkpt>
      <trkpt lat="50.12997" lon="3.72499">
        <ele>135.2</ele>
        <time>2016-04-03T08:23:49Z</time>
      </trkpt>
      <trkpt lat="50.12987" lon="3.72514">
        <ele>135.68</ele>
        <time>2016-04-03T08:23:59Z</time>
      </trkpt>
      <trkpt lat="50.12966" lon="3.7254">
        <ele>135.68</ele>
        <time>2016-04-03T08:24:12Z</time>
      </trkpt>
      <trkpt lat="50.12946" lon="3.72571">
        <ele>136.16</ele>
        <time>2016-04-03T08:24:24Z</time>
      </trkpt>
      <trkpt lat="50.12913" lon="3.72613">
        <ele>136.64</ele>
        <time>2016-04-03T08:24:34Z</time>
      </trkpt>
      <trkpt lat="50.12878" lon="3.72663">
        <ele>137.61</ele>
        <time>2016-04-03T08:24:46Z</time>
      </trkpt>
      <trkpt lat="50.12863" lon="3.72682">
        <ele>138.57</ele>
        <time>2016-04-03T08:24:58Z</time>
      </trkpt>
      <trkpt lat="50.1285" lon="3.72704">
        <ele>139.05</ele>
        <time>2016-04-03T08:25:08Z</time>
      </trkpt>
      <trkpt lat="50.12873" lon="3.72744">
        <ele>139.05</ele>
        <time>2016-04-03T08:25:21Z</time>
      </trkpt>
      <trkpt lat="50.12872" lon="3.72755">
        <ele>139.53</ele>
        <time>2016-04-03T08:25:27Z</time>
      </trkpt>
      <trkpt lat="50.12867" lon="3.72765">
        <ele>140.01</ele>
        <time>2016-04-03T08:25:35Z</time>
      </trkpt>
      <trkpt lat="50.12862" lon="3.72773">
        <ele>140.01</ele>
        <time>2016-04-03T08:25:39Z</time>
      </trkpt>
      <trkpt lat="50.12847" lon="3.72803">
        <ele>140.01</ele>
        <time>2016-04-03T08:25:51Z</time>
      </trkpt>
      <trkpt lat="50.12827" lon="3.72832">
        <ele>140.97</ele>
        <time>2016-04-03T08:26:01Z</time>
      </trkpt>
      <trkpt lat="50.12815" lon="3.72868">
        <ele>142.41</ele>
        <time>2016-04-03T08:26:15Z</time>
      </trkpt>
      <trkpt lat="50.12819" lon="3.72906">
        <ele>142.89</ele>
        <time>2016-04-03T08:26:28Z</time>
      </trkpt>
      <trkpt lat="50.12821" lon="3.72942">
        <ele>142.89</ele>
        <time>2016-04-03T08:26:40Z</time>
      </trkpt>
      <trkpt lat="50.12824" lon="3.72989">
        <ele>143.85</ele>
        <time>2016-04-03T08:26:53Z</time>
      </trkpt>
      <trkpt lat="50.12828" lon="3.7305">
        <ele>144.82</ele>
        <time>2016-04-03T08:27:09Z</time>
      </trkpt>
      <trkpt lat="50.12827" lon="3.73066">
        <ele>144.82</ele>
        <time>2016-04-03T08:27:14Z</time>
      </trkpt>
      <trkpt lat="50.12818" lon="3.73081">
        <ele>145.78</ele>
        <time>2016-04-03T08:27:21Z</time>
      </trkpt>
      <trkpt lat="50.12806" lon="3.73112">
        <ele>146.74</ele>
        <time>2016-04-03T08:27:35Z</time>
      </trkpt>
      <trkpt lat="50.12812" lon="3.73161">
        <ele>146.74</ele>
        <time>2016-04-03T08:27:50Z</time>
      </trkpt>
      <trkpt lat="50.12814" lon="3.73194">
        <ele>147.22</ele>
        <time>2016-04-03T08:28:01Z</time>
      </trkpt>
      <trkpt lat="50.12816" lon="3.73226">
        <ele>148.18</ele>
        <time>2016-04-03T08:28:12Z</time>
      </trkpt>
      <trkpt lat="50.12818" lon="3.73269">
        <ele>148.66</ele>
        <time>2016-04-03T08:28:24Z</time>
      </trkpt>
      <trkpt lat="50.12819" lon="3.73296">
        <ele>150.1</ele>
        <time>2016-04-03T08:28:36Z</time>
      </trkpt>
      <trkpt lat="50.12818" lon="3.73301">
        <ele>150.1</ele>
        <time>2016-04-03T08:28:39Z</time>
      </trkpt>
      <trkpt lat="50.12819" lon="3.73308">
        <ele>150.1</ele>
        <time>2016-04-03T08:28:43Z</time>
      </trkpt>
      <trkpt lat="50.1282" lon="3.73317">
        <ele>150.1</ele>
        <time>2016-04-03T08:28:54Z</time>
      </trkpt>
      <trkpt lat="50.12819" lon="3.7332">
        <ele>150.1</ele>
        <time>2016-04-03T08:29:10Z</time>
      </trkpt>
      <trkpt lat="50.12818" lon="3.73322">
        <ele>150.1</ele>
        <time>2016-04-03T08:29:28Z</time>
      </trkpt>
      <trkpt lat="50.12807" lon="3.73362">
        <ele>150.58</ele>
        <time>2016-04-03T08:29:41Z</time>
      </trkpt>
      <trkpt lat="50.12796" lon="3.73403">
        <ele>151.06</ele>
        <time>2016-04-03T08:29:55Z</time>
      </trkpt>
      <trkpt lat="50.12785" lon="3.7344">
        <ele>151.54</ele>
        <time>2016-04-03T08:30:09Z</time>
      </trkpt>
      <trkpt lat="50.1277" lon="3.73484">
        <ele>152.51</ele>
        <time>2016-04-03T08:30:24Z</time>
      </trkpt>
      <trkpt lat="50.12744" lon="3.73503">
        <ele>152.99</ele>
        <time>2016-04-03T08:30:35Z</time>
      </trkpt>
      <trkpt lat="50.12736" lon="3.73527">
        <ele>152.99</ele>
        <time>2016-04-03T08:30:41Z</time>
      </trkpt>
      <trkpt lat="50.12726" lon="3.73586">
        <ele>152.99</ele>
        <time>2016-04-03T08:30:57Z</time>
      </trkpt>
      <trkpt lat="50.12715" lon="3.73629">
        <ele>153.47</ele>
        <time>2016-04-03T08:31:10Z</time>
      </trkpt>
      <trkpt lat="50.127" lon="3.73686">
        <ele>153.95</ele>
        <time>2016-04-03T08:31:24Z</time>
      </trkpt>
      <trkpt lat="50.12696" lon="3.73695">
        <ele>153.95</ele>
        <time>2016-04-03T08:31:26Z</time>
      </trkpt>
      <trkpt lat="50.12679" lon="3.73738">
        <ele>152.51</ele>
        <time>2016-04-03T08:31:34Z</time>
      </trkpt>
      <trkpt lat="50.1265" lon="3.7381">
        <ele>151.54</ele>
        <time>2016-04-03T08:31:51Z</time>
      </trkpt>
      <trkpt lat="50.12627" lon="3.73836">
        <ele>153.47</ele>
        <time>2016-04-03T08:32:04Z</time>
      </trkpt>
      <trkpt lat="50.12623" lon="3.73833">
        <ele>153.47</ele>
        <time>2016-04-03T08:32:07Z</time>
      </trkpt>
      <trkpt lat="50.1262" lon="3.73825">
        <ele>153.47</ele>
        <time>2016-04-03T08:32:11Z</time>
      </trkpt>
      <trkpt lat="50.12615" lon="3.73809">
        <ele>153.47</ele>
        <time>2016-04-03T08:32:23Z</time>
      </trkpt>
      <trkpt lat="50.12615" lon="3.73807">
        <ele>153.95</ele>
        <time>2016-04-03T08:32:26Z</time>
      </trkpt>
      <trkpt lat="50.12614" lon="3.738">
        <ele>153.47</ele>
        <time>2016-04-03T08:32:29Z</time>
      </trkpt>
      <trkpt lat="50.12602" lon="3.73747">
        <ele>155.39</ele>
        <time>2016-04-03T08:32:44Z</time>
      </trkpt>
      <trkpt lat="50.12592" lon="3.73702">
        <ele>156.35</ele>
        <time>2016-04-03T08:32:57Z</time>
      </trkpt>
      <trkpt lat="50.12589" lon="3.73695">
        <ele>156.35</ele>
        <time>2016-04-03T08:32:59Z</time>
      </trkpt>
      <trkpt lat="50.12586" lon="3.73694">
        <ele>156.35</ele>
        <time>2016-04-03T08:33:00Z</time>
      </trkpt>
      <trkpt lat="50.12583" lon="3.73695">
        <ele>156.35</ele>
        <time>2016-04-03T08:33:01Z</time>
      </trkpt>
      <trkpt lat="50.1258" lon="3.73696">
        <ele>156.35</ele>
        <time>2016-04-03T08:33:02Z</time>
      </trkpt>
      <trkpt lat="50.12577" lon="3.73697">
        <ele>156.35</ele>
        <time>2016-04-03T08:33:03Z</time>
      </trkpt>
      <trkpt lat="50.12539" lon="3.7371">
        <ele>156.83</ele>
        <time>2016-04-03T08:33:20Z</time>
      </trkpt>
      <trkpt lat="50.12516" lon="3.73741">
        <ele>157.31</ele>
        <time>2016-04-03T08:33:35Z</time>
      </trkpt>
      <trkpt lat="50.12502" lon="3.73782">
        <ele>157.31</ele>
        <time>2016-04-03T08:33:47Z</time>
      </trkpt>
      <trkpt lat="50.12496" lon="3.73796">
        <ele>157.79</ele>
        <time>2016-04-03T08:33:52Z</time>
      </trkpt>
      <trkpt lat="50.12496" lon="3.73798">
        <ele>157.79</ele>
        <time>2016-04-03T08:33:53Z</time>
      </trkpt>
      <trkpt lat="50.12495" lon="3.738">
        <ele>157.79</ele>
        <time>2016-04-03T08:33:54Z</time>
      </trkpt>
      <trkpt lat="50.12475" lon="3.73833">
        <ele>158.27</ele>
        <time>2016-04-03T08:34:10Z</time>
      </trkpt>
      <trkpt lat="50.12474" lon="3.73835">
        <ele>158.75</ele>
        <time>2016-04-03T08:34:11Z</time>
      </trkpt>
      <trkpt lat="50.12472" lon="3.73836">
        <ele>158.75</ele>
        <time>2016-04-03T08:34:12Z</time>
      </trkpt>
      <trkpt lat="50.12471" lon="3.73838">
        <ele>158.75</ele>
        <time>2016-04-03T08:34:13Z</time>
      </trkpt>
      <trkpt lat="50.1247" lon="3.7384">
        <ele>158.75</ele>
        <time>2016-04-03T08:34:14Z</time>
      </trkpt>
      <trkpt lat="50.12468" lon="3.73842">
        <ele>158.75</ele>
        <time>2016-04-03T08:34:15Z</time>
      </trkpt>
      <trkpt lat="50.12467" lon="3.73843">
        <ele>158.75</ele>
        <time>2016-04-03T08:34:16Z</time>
      </trkpt>
      <trkpt lat="50.12466" lon="3.73845">
        <ele>158.75</ele>
        <time>2016-04-03T08:34:17Z</time>
      </trkpt>
      <trkpt lat="50.12465" lon="3.73847">
        <ele>158.75</ele>
        <time>2016-04-03T08:34:18Z</time>
      </trkpt>
      <trkpt lat="50.12449" lon="3.73867">
        <ele>159.24</ele>
        <time>2016-04-03T08:34:30Z</time>
      </trkpt>
      <trkpt lat="50.12447" lon="3.7387">
        <ele>159.72</ele>
        <time>2016-04-03T08:34:32Z</time>
      </trkpt>
      <trkpt lat="50.12446" lon="3.73872">
        <ele>159.72</ele>
        <time>2016-04-03T08:34:33Z</time>
      </trkpt>
      <trkpt lat="50.12421" lon="3.73903">
        <ele>160.2</ele>
        <time>2016-04-03T08:34:46Z</time>
      </trkpt>
      <trkpt lat="50.12402" lon="3.73956">
        <ele>158.27</ele>
        <time>2016-04-03T08:35:00Z</time>
      </trkpt>
      <trkpt lat="50.1239" lon="3.74021">
        <ele>156.83</ele>
        <time>2016-04-03T08:35:15Z</time>
      </trkpt>
      <trkpt lat="50.12383" lon="3.7407">
        <ele>156.35</ele>
        <time>2016-04-03T08:35:27Z</time>
      </trkpt>
      <trkpt lat="50.1238" lon="3.74123">
        <ele>155.87</ele>
        <time>2016-04-03T08:35:41Z</time>
      </trkpt>
      <trkpt lat="50.12377" lon="3.74151">
        <ele>155.87</ele>
        <time>2016-04-03T08:35:51Z</time>
      </trkpt>
      <trkpt lat="50.12372" lon="3.74205">
        <ele>157.31</ele>
        <time>2016-04-03T08:36:06Z</time>
      </trkpt>
      <trkpt lat="50.12367" lon="3.74265">
        <ele>155.87</ele>
        <time>2016-04-03T08:36:18Z</time>
      </trkpt>
      <trkpt lat="50.12354" lon="3.74335">
        <ele>152.51</ele>
        <time>2016-04-03T08:36:28Z</time>
      </trkpt>
      <trkpt lat="50.12336" lon="3.74402">
        <ele>151.06</ele>
        <time>2016-04-03T08:36:39Z</time>
      </trkpt>
      <trkpt lat="50.12333" lon="3.74408">
        <ele>151.06</ele>
        <time>2016-04-03T08:36:40Z</time>
      </trkpt>
      <trkpt lat="50.12309" lon="3.74477">
        <ele>148.18</ele>
        <time>2016-04-03T08:36:52Z</time>
      </trkpt>
      <trkpt lat="50.12309" lon="3.74483">
        <ele>148.18</ele>
        <time>2016-04-03T08:36:53Z</time>
      </trkpt>
      <trkpt lat="50.12308" lon="3.7449">
        <ele>148.18</ele>
        <time>2016-04-03T08:36:54Z</time>
      </trkpt>
      <trkpt lat="50.12309" lon="3.74503">
        <ele>147.7</ele>
        <time>2016-04-03T08:36:56Z</time>
      </trkpt>
      <trkpt lat="50.12313" lon="3.74552">
        <ele>147.22</ele>
        <time>2016-04-03T08:37:03Z</time>
      </trkpt>
      <trkpt lat="50.12313" lon="3.74579">
        <ele>147.22</ele>
        <time>2016-04-03T08:37:07Z</time>
      </trkpt>
      <trkpt lat="50.12313" lon="3.74586">
        <ele>147.22</ele>
        <time>2016-04-03T08:37:08Z</time>
      </trkpt>
      <trkpt lat="50.12306" lon="3.74625">
        <ele>148.66</ele>
        <time>2016-04-03T08:37:15Z</time>
      </trkpt>
      <trkpt lat="50.12293" lon="3.74678">
        <ele>149.14</ele>
        <time>2016-04-03T08:37:27Z</time>
      </trkpt>
      <trkpt lat="50.12277" lon="3.74744">
        <ele>147.22</ele>
        <time>2016-04-03T08:37:40Z</time>
      </trkpt>
      <trkpt lat="50.12252" lon="3.74815">
        <ele>145.3</ele>
        <time>2016-04-03T08:37:52Z</time>
      </trkpt>
      <trkpt lat="50.1225" lon="3.74821">
        <ele>145.3</ele>
        <time>2016-04-03T08:37:53Z</time>
      </trkpt>
      <trkpt lat="50.12248" lon="3.74826">
        <ele>145.78</ele>
        <time>2016-04-03T08:37:54Z</time>
      </trkpt>
      <trkpt lat="50.12246" lon="3.74887">
        <ele>145.3</ele>
        <time>2016-04-03T08:38:06Z</time>
      </trkpt>
      <trkpt lat="50.12248" lon="3.74892">
        <ele>145.3</ele>
        <time>2016-04-03T08:38:07Z</time>
      </trkpt>
      <trkpt lat="50.12252" lon="3.74895">
        <ele>145.3</ele>
        <time>2016-04-03T08:38:08Z</time>
      </trkpt>
      <trkpt lat="50.12255" lon="3.74896">
        <ele>144.34</ele>
        <time>2016-04-03T08:38:09Z</time>
      </trkpt>
      <trkpt lat="50.1226" lon="3.74897">
        <ele>143.85</ele>
        <time>2016-04-03T08:38:10Z</time>
      </trkpt>
      <trkpt lat="50.12265" lon="3.74898">
        <ele>143.85</ele>
        <time>2016-04-03T08:38:11Z</time>
      </trkpt>
      <trkpt lat="50.1227" lon="3.749">
        <ele>143.85</ele>
        <time>2016-04-03T08:38:12Z</time>
      </trkpt>
      <trkpt lat="50.12346" lon="3.7493">
        <ele>141.45</ele>
        <time>2016-04-03T08:38:27Z</time>
      </trkpt>
      <trkpt lat="50.12365" lon="3.74929">
        <ele>141.45</ele>
        <time>2016-04-03T08:38:32Z</time>
      </trkpt>
      <trkpt lat="50.12389" lon="3.74914">
        <ele>140.01</ele>
        <time>2016-04-03T08:38:38Z</time>
      </trkpt>
      <trkpt lat="50.12398" lon="3.74911">
        <ele>140.49</ele>
        <time>2016-04-03T08:38:40Z</time>
      </trkpt>
      <trkpt lat="50.12402" lon="3.7491">
        <ele>140.01</ele>
        <time>2016-04-03T08:38:41Z</time>
      </trkpt>
      <trkpt lat="50.12481" lon="3.74915">
        <ele>139.05</ele>
        <time>2016-04-03T08:38:58Z</time>
      </trkpt>
      <trkpt lat="50.12537" lon="3.74901">
        <ele>138.57</ele>
        <time>2016-04-03T08:39:14Z</time>
      </trkpt>
      <trkpt lat="50.12592" lon="3.74894">
        <ele>137.13</ele>
        <time>2016-04-03T08:39:29Z</time>
      </trkpt>
      <trkpt lat="50.12645" lon="3.74898">
        <ele>136.16</ele>
        <time>2016-04-03T08:39:45Z</time>
      </trkpt>
      <trkpt lat="50.12676" lon="3.74911">
        <ele>135.68</ele>
        <time>2016-04-03T08:39:58Z</time>
      </trkpt>
      <trkpt lat="50.12732" lon="3.7493">
        <ele>134.72</ele>
        <time>2016-04-03T08:40:12Z</time>
      </trkpt>
      <trkpt lat="50.12774" lon="3.74953">
        <ele>134.72</ele>
        <time>2016-04-03T08:40:25Z</time>
      </trkpt>
      <trkpt lat="50.12822" lon="3.75007">
        <ele>134.24</ele>
        <time>2016-04-03T08:40:39Z</time>
      </trkpt>
      <trkpt lat="50.12821" lon="3.75013">
        <ele>134.24</ele>
        <time>2016-04-03T08:40:48Z</time>
      </trkpt>
      <trkpt lat="50.1281" lon="3.75054">
        <ele>134.24</ele>
        <time>2016-04-03T08:41:00Z</time>
      </trkpt>
      <trkpt lat="50.12811" lon="3.75131">
        <ele>134.24</ele>
        <time>2016-04-03T08:41:15Z</time>
      </trkpt>
      <trkpt lat="50.12836" lon="3.75211">
        <ele>134.24</ele>
        <time>2016-04-03T08:41:30Z</time>
      </trkpt>
      <trkpt lat="50.1284" lon="3.75222">
        <ele>134.24</ele>
        <time>2016-04-03T08:41:32Z</time>
      </trkpt>
      <trkpt lat="50.12842" lon="3.75227">
        <ele>134.24</ele>
        <time>2016-04-03T08:41:33Z</time>
      </trkpt>
      <trkpt lat="50.12844" lon="3.75232">
        <ele>134.24</ele>
        <time>2016-04-03T08:41:34Z</time>
      </trkpt>
      <trkpt lat="50.12846" lon="3.75237">
        <ele>134.24</ele>
        <time>2016-04-03T08:41:35Z</time>
      </trkpt>
      <trkpt lat="50.12847" lon="3.75241">
        <ele>134.24</ele>
        <time>2016-04-03T08:41:36Z</time>
      </trkpt>
      <trkpt lat="50.12848" lon="3.75246">
        <ele>134.24</ele>
        <time>2016-04-03T08:41:37Z</time>
      </trkpt>
      <trkpt lat="50.12849" lon="3.75251">
        <ele>134.24</ele>
        <time>2016-04-03T08:41:38Z</time>
      </trkpt>
      <trkpt lat="50.1285" lon="3.75255">
        <ele>134.24</ele>
        <time>2016-04-03T08:41:39Z</time>
      </trkpt>
      <trkpt lat="50.12867" lon="3.75314">
        <ele>134.24</ele>
        <time>2016-04-03T08:41:51Z</time>
      </trkpt>
      <trkpt lat="50.12884" lon="3.75376">
        <ele>133.76</ele>
        <time>2016-04-03T08:42:02Z</time>
      </trkpt>
      <trkpt lat="50.12899" lon="3.75493">
        <ele>133.76</ele>
        <time>2016-04-03T08:42:17Z</time>
      </trkpt>
      <trkpt lat="50.12905" lon="3.75533">
        <ele>133.76</ele>
        <time>2016-04-03T08:42:22Z</time>
      </trkpt>
      <trkpt lat="50.1292" lon="3.75624">
        <ele>133.76</ele>
        <time>2016-04-03T08:42:37Z</time>
      </trkpt>
      <trkpt lat="50.12921" lon="3.75694">
        <ele>133.76</ele>
        <time>2016-04-03T08:42:51Z</time>
      </trkpt>
      <trkpt lat="50.1293" lon="3.75768">
        <ele>133.76</ele>
        <time>2016-04-03T08:43:05Z</time>
      </trkpt>
      <trkpt lat="50.12929" lon="3.75842">
        <ele>133.76</ele>
        <time>2016-04-03T08:43:19Z</time>
      </trkpt>
      <trkpt lat="50.12929" lon="3.7585">
        <ele>134.72</ele>
        <time>2016-04-03T08:43:21Z</time>
      </trkpt>
      <trkpt lat="50.12921" lon="3.75911">
        <ele>133.76</ele>
        <time>2016-04-03T08:43:33Z</time>
      </trkpt>
      <trkpt lat="50.12909" lon="3.75976">
        <ele>133.76</ele>
        <time>2016-04-03T08:43:49Z</time>
      </trkpt>
      <trkpt lat="50.12908" lon="3.75997">
        <ele>133.76</ele>
        <time>2016-04-03T08:43:55Z</time>
      </trkpt>
      <trkpt lat="50.1291" lon="3.76001">
        <ele>133.76</ele>
        <time>2016-04-03T08:43:56Z</time>
      </trkpt>
      <trkpt lat="50.12912" lon="3.76002">
        <ele>133.76</ele>
        <time>2016-04-03T08:43:57Z</time>
      </trkpt>
      <trkpt lat="50.12914" lon="3.76003">
        <ele>133.76</ele>
        <time>2016-04-03T08:43:58Z</time>
      </trkpt>
      <trkpt lat="50.12916" lon="3.76004">
        <ele>133.76</ele>
        <time>2016-04-03T08:43:59Z</time>
      </trkpt>
      <trkpt lat="50.12918" lon="3.76005">
        <ele>134.24</ele>
        <time>2016-04-03T08:44:00Z</time>
      </trkpt>
      <trkpt lat="50.12959" lon="3.76008">
        <ele>133.76</ele>
        <time>2016-04-03T08:44:16Z</time>
      </trkpt>
      <trkpt lat="50.12998" lon="3.76002">
        <ele>133.76</ele>
        <time>2016-04-03T08:44:30Z</time>
      </trkpt>
      <trkpt lat="50.13046" lon="3.75997">
        <ele>133.76</ele>
        <time>2016-04-03T08:44:48Z</time>
      </trkpt>
      <trkpt lat="50.13072" lon="3.75996">
        <ele>133.76</ele>
        <time>2016-04-03T08:44:59Z</time>
      </trkpt>
      <trkpt lat="50.13078" lon="3.75996">
        <ele>133.76</ele>
        <time>2016-04-03T08:45:06Z</time>
      </trkpt>
      <trkpt lat="50.13079" lon="3.75995">
        <ele>133.76</ele>
        <time>2016-04-03T08:45:07Z</time>
      </trkpt>
      <trkpt lat="50.13081" lon="3.75995">
        <ele>133.76</ele>
        <time>2016-04-03T08:45:08Z</time>
      </trkpt>
      <trkpt lat="50.13082" lon="3.75995">
        <ele>133.76</ele>
        <time>2016-04-03T08:45:09Z</time>
      </trkpt>
      <trkpt lat="50.13085" lon="3.75995">
        <ele>133.76</ele>
        <time>2016-04-03T08:45:10Z</time>
      </trkpt>
      <trkpt lat="50.13087" lon="3.75994">
        <ele>133.76</ele>
        <time>2016-04-03T08:45:11Z</time>
      </trkpt>
      <trkpt lat="50.13089" lon="3.75994">
        <ele>133.76</ele>
        <time>2016-04-03T08:45:12Z</time>
      </trkpt>
      <trkpt lat="50.13092" lon="3.75994">
        <ele>133.76</ele>
        <time>2016-04-03T08:45:13Z</time>
      </trkpt>
      <trkpt lat="50.13126" lon="3.75976">
        <ele>133.76</ele>
        <time>2016-04-03T08:45:28Z</time>
      </trkpt>
      <trkpt lat="50.13163" lon="3.75945">
        <ele>133.76</ele>
        <time>2016-04-03T08:45:45Z</time>
      </trkpt>
      <trkpt lat="50.13203" lon="3.75922">
        <ele>133.76</ele>
        <time>2016-04-03T08:46:00Z</time>
      </trkpt>
      <trkpt lat="50.13219" lon="3.75913">
        <ele>134.72</ele>
        <time>2016-04-03T08:46:07Z</time>
      </trkpt>
      <trkpt lat="50.1325" lon="3.75892">
        <ele>135.68</ele>
        <time>2016-04-03T08:46:23Z</time>
      </trkpt>
      <trkpt lat="50.13267" lon="3.75886">
        <ele>135.68</ele>
        <time>2016-04-03T08:46:33Z</time>
      </trkpt>
      <trkpt lat="50.13271" lon="3.75887">
        <ele>135.68</ele>
        <time>2016-04-03T08:46:48Z</time>
      </trkpt>
      <trkpt lat="50.13275" lon="3.75888">
        <ele>136.16</ele>
        <time>2016-04-03T08:47:01Z</time>
      </trkpt>
      <trkpt lat="50.13284" lon="3.75885">
        <ele>138.57</ele>
        <time>2016-04-03T08:47:16Z</time>
      </trkpt>
      <trkpt lat="50.13288" lon="3.75886">
        <ele>138.57</ele>
        <time>2016-04-03T08:47:24Z</time>
      </trkpt>
      <trkpt lat="50.13294" lon="3.75922">
        <ele>138.57</ele>
        <time>2016-04-03T08:47:39Z</time>
      </trkpt>
      <trkpt lat="50.13293" lon="3.75963">
        <ele>138.57</ele>
        <time>2016-04-03T08:47:51Z</time>
      </trkpt>
      <trkpt lat="50.13287" lon="3.75973">
        <ele>137.13</ele>
        <time>2016-04-03T08:47:54Z</time>
      </trkpt>
      <trkpt lat="50.13276" lon="3.75988">
        <ele>136.64</ele>
        <time>2016-04-03T08:47:58Z</time>
      </trkpt>
      <trkpt lat="50.13287" lon="3.76011">
        <ele>136.16</ele>
        <time>2016-04-03T08:48:04Z</time>
      </trkpt>
      <trkpt lat="50.13301" lon="3.7603">
        <ele>138.09</ele>
        <time>2016-04-03T08:48:14Z</time>
      </trkpt>
      <trkpt lat="50.13302" lon="3.76042">
        <ele>138.57</ele>
        <time>2016-04-03T08:48:24Z</time>
      </trkpt>
      <trkpt lat="50.13301" lon="3.76043">
        <ele>138.57</ele>
        <time>2016-04-03T08:48:27Z</time>
      </trkpt>
      <trkpt lat="50.13295" lon="3.76073">
        <ele>136.64</ele>
        <time>2016-04-03T08:48:36Z</time>
      </trkpt>
      <trkpt lat="50.13287" lon="3.76108">
        <ele>136.64</ele>
        <time>2016-04-03T08:48:48Z</time>
      </trkpt>
      <trkpt lat="50.13282" lon="3.76115">
        <ele>136.64</ele>
        <time>2016-04-03T08:48:52Z</time>
      </trkpt>
      <trkpt lat="50.13281" lon="3.76139">
        <ele>138.57</ele>
        <time>2016-04-03T08:49:03Z</time>
      </trkpt>
      <trkpt lat="50.13283" lon="3.76159">
        <ele>139.53</ele>
        <time>2016-04-03T08:49:12Z</time>
      </trkpt>
      <trkpt lat="50.13282" lon="3.76165">
        <ele>139.53</ele>
        <time>2016-04-03T08:49:14Z</time>
      </trkpt>
      <trkpt lat="50.1328" lon="3.76168">
        <ele>139.53</ele>
        <time>2016-04-03T08:49:15Z</time>
      </trkpt>
      <trkpt lat="50.13277" lon="3.7617">
        <ele>138.57</ele>
        <time>2016-04-03T08:49:16Z</time>
      </trkpt>
      <trkpt lat="50.13274" lon="3.76173">
        <ele>138.57</ele>
        <time>2016-04-03T08:49:17Z</time>
      </trkpt>
      <trkpt lat="50.1327" lon="3.76175">
        <ele>137.61</ele>
        <time>2016-04-03T08:49:18Z</time>
      </trkpt>
      <trkpt lat="50.13265" lon="3.76179">
        <ele>137.61</ele>
        <time>2016-04-03T08:49:19Z</time>
      </trkpt>
      <trkpt lat="50.13261" lon="3.76183">
        <ele>137.13</ele>
        <time>2016-04-03T08:49:20Z</time>
      </trkpt>
      <trkpt lat="50.13247" lon="3.76192">
        <ele>136.64</ele>
        <time>2016-04-03T08:49:23Z</time>
      </trkpt>
      <trkpt lat="50.13243" lon="3.76196">
        <ele>136.16</ele>
        <time>2016-04-03T08:49:24Z</time>
      </trkpt>
      <trkpt lat="50.13238" lon="3.762">
        <ele>136.16</ele>
        <time>2016-04-03T08:49:25Z</time>
      </trkpt>
      <trkpt lat="50.13227" lon="3.76215">
        <ele>135.68</ele>
        <time>2016-04-03T08:49:28Z</time>
      </trkpt>
      <trkpt lat="50.13199" lon="3.76268">
        <ele>135.2</ele>
        <time>2016-04-03T08:49:41Z</time>
      </trkpt>
      <trkpt lat="50.13187" lon="3.76275">
        <ele>135.2</ele>
        <time>2016-04-03T08:49:46Z</time>
      </trkpt>
      <trkpt lat="50.13184" lon="3.76278">
        <ele>135.2</ele>
        <time>2016-04-03T08:49:47Z</time>
      </trkpt>
      <trkpt lat="50.13181" lon="3.76282">
        <ele>135.2</ele>
        <time>2016-04-03T08:49:48Z</time>
      </trkpt>
      <trkpt lat="50.1318" lon="3.76287">
        <ele>135.2</ele>
        <time>2016-04-03T08:49:49Z</time>
      </trkpt>
      <trkpt lat="50.13179" lon="3.76291">
        <ele>135.2</ele>
        <time>2016-04-03T08:49:50Z</time>
      </trkpt>
      <trkpt lat="50.13157" lon="3.76326">
        <ele>135.2</ele>
        <time>2016-04-03T08:50:02Z</time>
      </trkpt>
      <trkpt lat="50.13144" lon="3.7635">
        <ele>136.64</ele>
        <time>2016-04-03T08:50:11Z</time>
      </trkpt>
      <trkpt lat="50.13141" lon="3.76365">
        <ele>137.61</ele>
        <time>2016-04-03T08:50:15Z</time>
      </trkpt>
      <trkpt lat="50.1314" lon="3.76402">
        <ele>138.09</ele>
        <time>2016-04-03T08:50:30Z</time>
      </trkpt>
      <trkpt lat="50.13143" lon="3.76417">
        <ele>138.09</ele>
        <time>2016-04-03T08:50:35Z</time>
      </trkpt>
      <trkpt lat="50.13149" lon="3.76423">
        <ele>136.64</ele>
        <time>2016-04-03T08:50:37Z</time>
      </trkpt>
      <trkpt lat="50.13153" lon="3.76424">
        <ele>136.64</ele>
        <time>2016-04-03T08:50:38Z</time>
      </trkpt>
      <trkpt lat="50.13155" lon="3.76424">
        <ele>136.64</ele>
        <time>2016-04-03T08:50:39Z</time>
      </trkpt>
      <trkpt lat="50.13156" lon="3.76423">
        <ele>136.64</ele>
        <time>2016-04-03T08:50:40Z</time>
      </trkpt>
      <trkpt lat="50.13158" lon="3.76422">
        <ele>136.64</ele>
        <time>2016-04-03T08:50:41Z</time>
      </trkpt>
      <trkpt lat="50.13158" lon="3.76421">
        <ele>136.64</ele>
        <time>2016-04-03T08:50:42Z</time>
      </trkpt>
      <trkpt lat="50.13161" lon="3.7641">
        <ele>138.57</ele>
        <time>2016-04-03T08:50:52Z</time>
      </trkpt>
      <trkpt lat="50.13163" lon="3.76407">
        <ele>138.57</ele>
        <time>2016-04-03T08:50:53Z</time>
      </trkpt>
      <trkpt lat="50.13184" lon="3.76372">
        <ele>140.01</ele>
        <time>2016-04-03T08:51:05Z</time>
      </trkpt>
      <trkpt lat="50.13219" lon="3.76345">
        <ele>142.89</ele>
        <time>2016-04-03T08:51:18Z</time>
      </trkpt>
      <trkpt lat="50.13247" lon="3.76338">
        <ele>145.3</ele>
        <time>2016-04-03T08:51:32Z</time>
      </trkpt>
      <trkpt lat="50.13276" lon="3.76355">
        <ele>148.66</ele>
        <time>2016-04-03T08:51:45Z</time>
      </trkpt>
      <trkpt lat="50.13311" lon="3.76357">
        <ele>150.1</ele>
        <time>2016-04-03T08:52:00Z</time>
      </trkpt>
      <trkpt lat="50.13347" lon="3.76349">
        <ele>152.99</ele>
        <time>2016-04-03T08:52:17Z</time>
      </trkpt>
      <trkpt lat="50.13381" lon="3.76357">
        <ele>153.47</ele>
        <time>2016-04-03T08:52:30Z</time>
      </trkpt>
      <trkpt lat="50.13414" lon="3.76384">
        <ele>154.43</ele>
        <time>2016-04-03T08:52:46Z</time>
      </trkpt>
      <trkpt lat="50.13418" lon="3.76385">
        <ele>154.43</ele>
        <time>2016-04-03T08:52:48Z</time>
      </trkpt>
      <trkpt lat="50.13419" lon="3.76384">
        <ele>154.43</ele>
        <time>2016-04-03T08:52:49Z</time>
      </trkpt>
      <trkpt lat="50.13422" lon="3.76382">
        <ele>154.91</ele>
        <time>2016-04-03T08:52:59Z</time>
      </trkpt>
      <trkpt lat="50.13421" lon="3.76387">
        <ele>154.91</ele>
        <time>2016-04-03T08:53:17Z</time>
      </trkpt>
      <trkpt lat="50.1342" lon="3.76386">
        <ele>154.91</ele>
        <time>2016-04-03T08:53:28Z</time>
      </trkpt>
      <trkpt lat="50.13418" lon="3.76387">
        <ele>154.91</ele>
        <time>2016-04-03T08:53:33Z</time>
      </trkpt>
      <trkpt lat="50.13417" lon="3.76386">
        <ele>154.91</ele>
        <time>2016-04-03T08:53:43Z</time>
      </trkpt>
      <trkpt lat="50.13419" lon="3.76385">
        <ele>154.91</ele>
        <time>2016-04-03T08:54:02Z</time>
      </trkpt>
      <trkpt lat="50.13421" lon="3.76388">
        <ele>154.91</ele>
        <time>2016-04-03T08:54:25Z</time>
      </trkpt>
      <trkpt lat="50.1342" lon="3.76387">
        <ele>154.91</ele>
        <time>2016-04-03T08:54:47Z</time>
      </trkpt>
      <trkpt lat="50.13418" lon="3.76388">
        <ele>154.91</ele>
        <time>2016-04-03T08:55:04Z</time>
      </trkpt>
      <trkpt lat="50.13419" lon="3.76389">
        <ele>154.91</ele>
        <time>2016-04-03T08:55:28Z</time>
      </trkpt>
      <trkpt lat="50.1342" lon="3.76388">
        <ele>154.91</ele>
        <time>2016-04-03T08:55:49Z</time>
      </trkpt>
      <trkpt lat="50.13418" lon="3.76389">
        <ele>154.91</ele>
        <time>2016-04-03T08:56:02Z</time>
      </trkpt>
      <trkpt lat="50.13418" lon="3.76389">
        <ele>155.39</ele>
        <time>2016-04-03T08:56:30Z</time>
      </trkpt>
      <trkpt lat="50.1342" lon="3.76389">
        <ele>155.39</ele>
        <time>2016-04-03T08:56:48Z</time>
      </trkpt>
      <trkpt lat="50.13417" lon="3.76389">
        <ele>155.39</ele>
        <time>2016-04-03T08:57:17Z</time>
      </trkpt>
      <trkpt lat="50.1342" lon="3.76388">
        <ele>155.39</ele>
        <time>2016-04-03T08:57:39Z</time>
      </trkpt>
      <trkpt lat="50.1342" lon="3.76389">
        <ele>155.39</ele>
        <time>2016-04-03T08:58:05Z</time>
      </trkpt>
      <trkpt lat="50.13419" lon="3.7639">
        <ele>155.39</ele>
        <time>2016-04-03T08:58:24Z</time>
      </trkpt>
      <trkpt lat="50.13419" lon="3.76389">
        <ele>155.39</ele>
        <time>2016-04-03T08:58:50Z</time>
      </trkpt>
      <trkpt lat="50.13419" lon="3.76389">
        <ele>155.39</ele>
        <time>2016-04-03T08:59:10Z</time>
      </trkpt>
      <trkpt lat="50.13417" lon="3.76387">
        <ele>155.39</ele>
        <time>2016-04-03T08:59:36Z</time>
      </trkpt>
      <trkpt lat="50.13419" lon="3.76387">
        <ele>155.39</ele>
        <time>2016-04-03T09:00:00Z</time>
      </trkpt>
      <trkpt lat="50.13418" lon="3.76384">
        <ele>155.39</ele>
        <time>2016-04-03T09:00:23Z</time>
      </trkpt>
      <trkpt lat="50.13419" lon="3.76382">
        <ele>155.39</ele>
        <time>2016-04-03T09:00:46Z</time>
      </trkpt>
      <trkpt lat="50.13421" lon="3.76382">
        <ele>155.39</ele>
        <time>2016-04-03T09:01:06Z</time>
      </trkpt>
      <trkpt lat="50.13421" lon="3.76382">
        <ele>155.39</ele>
        <time>2016-04-03T09:01:29Z</time>
      </trkpt>
    </trkseg>
  </trk>
</gpx>